Flight Track Log - Related Links

Times and Time Zones

All times are in EST time to prevent confusion due to time zone crossing. See the N830QS flight status page for this flight to view local times or setup timezone preferences in your user account.

Time Position Orientation Groundspeed Altitude Reporting Facility
EST Latitude Longitude Course Direction KTS MPH feet Rate Location/Type
Mon 04:26:18 PM 32.2481 -90.1214 293° West 233 268 5,500  Level Memphis Center
Mon 04:27:20 PM 32.2744 -90.1933 293° West 240 276 9,200 3,532 Climbing Memphis Center
Mon 04:28:22 PM 32.3050 -90.2714 295° West 254 292 12,800 3,194 Climbing Memphis Center
Mon 04:29:24 PM 32.3372 -90.3536 295° West 269 310 15,800 2,903 Climbing Memphis Center
Mon 04:30:26 PM 32.3703 -90.4378 295° West 279 321 18,800 3,145 Climbing Memphis Center
Mon 04:31:28 PM 32.4125 -90.5408 296° West 288 331 22,300 2,710 Climbing Memphis Center
Mon 04:32:30 PM 32.4464 -90.6278 295° West 290 334 24,400 2,032 Climbing Memphis Center
Mon 04:33:32 PM 32.4819 -90.7189 295° West 300 345 26,500 2,081 Climbing Memphis Center
Mon 04:34:34 PM 32.5169 -90.8094 295° West 304 350 28,700 2,177 Climbing Memphis Center
Mon 04:35:36 PM 32.5525 -90.8978 296° West 301 346 31,000 2,129 Climbing Memphis Center
Mon 04:36:38 PM 32.5850 -90.9817 295° West 289 333 33,100 1,452 Climbing Memphis Center
Mon 04:37:40 PM 32.6244 -91.0836 295° West 285 328 34,000 435 Climbing Memphis Center
Mon 04:38:42 PM 32.6617 -91.1803 295° West 317 365 34,000  Level Memphis Center
Mon 04:39:44 PM 32.7025 -91.2828 295° West 340 391 34,000  Level Memphis Center
Mon 04:40:46 PM 32.7417 -91.3872 294° West 346 398 34,000  Level Memphis Center
Mon 04:41:48 PM 32.7828 -91.4911 295° West 349 402 34,000  Level Memphis Center
Mon 04:42:50 PM 32.8292 -91.6136 294° West 343 395 34,000  Level Memphis Center
Mon 04:43:52 PM 32.8683 -91.7147 295° West 340 391 34,000  Level Memphis Center
Mon 04:44:54 PM 32.9067 -91.8153 294° West 338 389 34,000  Level Memphis Center
Mon 04:45:56 PM 32.9475 -91.9161 296° West 338 389 34,000  Level Memphis Center
Mon 04:46:58 PM 32.9436 -92.0272 268° West 344 396 34,000  Level Memphis Center
Mon 04:48:00 PM 32.9103 -92.1583 253° West 347 399 34,000  Level Memphis Center
Mon 04:48:41 PM 32.9006 -92.2242 260° West 348 400 34,000  Level Fort Worth Center
Mon 04:49:43 PM 32.8797 -92.3356 257° West 346 398 34,000  Level Fort Worth Center
Mon 04:50:45 PM 32.8603 -92.4461 258° West 343 395 34,000  Level Fort Worth Center
Mon 04:51:47 PM 32.8397 -92.5575 258° West 343 395 34,000  Level Fort Worth Center
Mon 04:52:49 PM 32.8147 -92.6922 258° West 348 400 34,000  Level Fort Worth Center
Mon 04:53:51 PM 32.7931 -92.8036 257° West 348 400 34,000  Level Fort Worth Center
Mon 04:54:53 PM 32.7731 -92.9133 258° West 342 394 34,000  Level Fort Worth Center
Mon 04:55:55 PM 32.7514 -93.0228 257° West 340 391 34,000  Level Fort Worth Center
Mon 04:56:57 PM 32.7308 -93.1342 258° West 344 396 34,000  Level Fort Worth Center
Mon 04:57:59 PM 32.7114 -93.2447 258° West 344 396 34,000  Level Fort Worth Center
Mon 04:59:02 PM 32.6872 -93.3753 258° West 337 388 34,000  Level Fort Worth Center
Mon 05:00:04 PM 32.6661 -93.4872 257° West 344 396 34,000  Level Fort Worth Center
Mon 05:01:06 PM 32.6442 -93.5989 257° West 346 398 34,000  Level Fort Worth Center
Mon 05:02:08 PM 32.6228 -93.7100 257° West 346 398 34,000  Level Fort Worth Center
Mon 05:03:10 PM 32.6011 -93.8211 257° West 344 396 34,000  Level Fort Worth Center
Mon 05:04:12 PM 32.5800 -93.9314 257° West 343 395 34,000  Level Fort Worth Center
Mon 05:05:14 PM 32.5589 -94.0431 257° West 347 399 34,000  Level Fort Worth Center
Mon 05:06:16 PM 32.5317 -94.1758 256° West 346 398 34,000  Level Fort Worth Center
Mon 05:07:18 PM 32.5100 -94.2864 257° West 346 398 34,000  Level Fort Worth Center
Mon 05:08:20 PM 32.4886 -94.3969 257° West 345 397 34,000  Level Fort Worth Center
Mon 05:09:22 PM 32.4667 -94.5097 257° West 349 402 34,000  Level Fort Worth Center
Mon 05:10:26 PM 32.4444 -94.6225 257° West 353 406 34,000 -432 Level Fort Worth Center
Mon 05:11:27 PM 32.4219 -94.7311 256° West 343 395 33,100 -1,951 Descending Fort Worth Center
Mon 05:12:29 PM 32.3994 -94.8622 259° West 340 391 30,000 -2,613 Descending Fort Worth Center
Mon 05:13:31 PM 32.3811 -94.9736 259° West 345 397 27,700 -1,984 Descending Fort Worth Center
Mon 05:14:33 PM 32.3781 -95.0844 268° West 353 406 25,900 -1,790 Descending Fort Worth Center
Mon 05:15:35 PM 32.3708 -95.2122 266° West 361 415 24,000 -1,597 Descending Fort Worth Center
Mon 05:16:37 PM 32.3636 -95.3403 266° West 352 405 22,600 -1,161 Descending Fort Worth Center
Mon 05:17:39 PM 32.3569 -95.4525 266° West 346 398 21,600 -968 Descending Fort Worth Center
Mon 05:18:41 PM 32.3497 -95.5650 266° West 345 397 20,600 -968 Descending Fort Worth Center
Mon 05:19:43 PM 32.3425 -95.6803 266° West 347 399 19,600 -919 Descending Fort Worth Center
Mon 05:20:45 PM 32.3361 -95.7950 266° West 350 403 18,700 -919 Descending Fort Worth Center
Mon 05:21:47 PM 32.3275 -95.9097 265° West 351 404 17,700 -1,016 Descending Fort Worth Center
Mon 05:22:49 PM 32.3197 -96.0481 266° West 349 402 16,600 -1,016 Descending Fort Worth Center
Mon 05:23:51 PM 32.3122 -96.1600 265° West 344 396 15,600 -968 Descending Fort Worth Center
Mon 05:24:53 PM 32.3050 -96.2803 266° West 341 392 14,600 -912 Descending Fort Worth Center
Mon 05:25:56 PM 32.2969 -96.3892 265° West 336 387 13,700 -864 Descending Fort Worth Center
Mon 05:26:58 PM 32.2906 -96.4953 266° West 326 375 12,800 -774 Descending Fort Worth Center
Mon 05:28:00 PM 32.2975 -96.5933 275° West 296 341 12,100 -1,065 Descending Fort Worth Center
Mon 05:29:02 PM 32.3297 -96.6711 296° West 285 328 10,600 -1,548 Descending Fort Worth Center
Mon 05:30:04 PM 32.3431 -96.7628 280° West 268 308 8,900 -1,597 Descending Fort Worth Center
Mon 05:31:06 PM 32.3539 -96.8486 279° West 265 305 7,300 -1,355 Descending Fort Worth Center
Mon 05:32:08 PM 32.3667 -96.9422 279° West 268 308 6,100 -1,016 Descending Fort Worth Center
Mon 05:33:10 PM 32.3767 -97.0294 278° West 268 308 5,200 -968 Descending Fort Worth Center
Mon 05:34:12 PM 32.3894 -97.1122 280° West 260 299 4,100 -774 Descending Fort Worth Center
Mon 05:35:14 PM 32.4194 -97.1758 299° West 211 243 3,600 -532 Descending Fort Worth Center
Mon 05:36:16 PM 32.4703 -97.2114 329° Northwest 204 235 3,000 -290 Descending Fort Worth Center
Mon 05:37:18 PM 32.5236 -97.2392 336° Northwest 194 223 3,000  Level Fort Worth Center
Mon 05:38:20 PM 32.5739 -97.2644 337° Northwest 197 227 3,000  Level Fort Worth Center
Mon 05:39:22 PM 32.6250 -97.2892 338° Northwest 198 228 3,000  Level Fort Worth Center
Mon 05:40:25 PM 32.6767 -97.3214 332° Northwest 195 224 3,000 -192 Level Fort Worth Center
Mon 05:41:27 PM 32.7233 -97.3453 337° Northwest 185 213 2,600 -726 Descending Fort Worth Center
Mon 05:42:29 PM 32.7694 -97.3528 352° North 155 178 1,500 -823 Descending Fort Worth Center
Mon 05:43:31 PM 32.8003 -97.3578 352° North 114 131 900 -387 Descending Fort Worth Center
Mon 05:44:33 PM 32.8275 -97.3614 354° North 112 129 700 -194 Descending Fort Worth Center
Mon 05:46:00 PM 32.8167 -97.3500 308° West  Level FlightAware Approximate
Mon 05:53:00 PM 32.8193 -97.3617 308° West  Level Estimated

Login

Don't have an account? Register now (free) for customized features, flight alerts, and more!